sensor_id;sensor_type;location;lat;lon;timestamp;temperature;humidity
2721;DHT22;1368;49.484;11.112;2023-04-28T00:00:52;11.60;99.90
2721;DHT22;1368;49.484;11.112;2023-04-28T00:03:18;11.70;99.90
2721;DHT22;1368;49.484;11.112;2023-04-28T00:05:44;11.70;99.90
2721;DHT22;1368;49.484;11.112;2023-04-28T00:08:09;11.70;99.90
2721;DHT22;1368;49.484;11.112;2023-04-28T00:10:35;11.80;99.90
2721;DHT22;1368;49.484;11.112;2023-04-28T00:13:00;11.80;99.90
2721;DHT22;1368;49.484;11.112;2023-04-28T00:15:26;11.80;99.90
2721;DHT22;1368;49.484;11.112;2023-04-28T00:17:51;11.60;99.90
2721;DHT22;1368;49.484;11.112;2023-04-28T00:20:17;11.60;99.90
2721;DHT22;1368;49.484;11.112;2023-04-28T00:22:43;11.40;99.90
2721;DHT22;1368;49.484;11.112;2023-04-28T00:25:09;11.30;99.90
2721;DHT22;1368;49.484;11.112;2023-04-28T00:27:35;11.10;99.90
2721;DHT22;1368;49.484;11.112;2023-04-28T00:30:01;11.10;99.90
2721;DHT22;1368;49.484;11.112;2023-04-28T00:32:26;11.00;99.90
2721;DHT22;1368;49.484;11.112;2023-04-28T00:34:52;10.80;99.90
2721;DHT22;1368;49.484;11.112;2023-04-28T00:37:18;10.60;99.90
2721;DHT22;1368;49.484;11.112;2023-04-28T00:39:44;10.50;99.90
2721;DHT22;1368;49.484;11.112;2023-04-28T00:42:12;10.40;99.90
2721;DHT22;1368;49.484;11.112;2023-04-28T00:44:37;10.50;99.90
2721;DHT22;1368;49.484;11.112;2023-04-28T00:47:03;10.40;99.90
2721;DHT22;1368;49.484;11.112;2023-04-28T00:49:29;10.30;99.90
2721;DHT22;1368;49.484;11.112;2023-04-28T00:51:55;10.80;99.90
2721;DHT22;1368;49.484;11.112;2023-04-28T00:54:22;10.30;99.90
2721;DHT22;1368;49.484;11.112;2023-04-28T00:56:47;10.30;99.90
2721;DHT22;1368;49.484;11.112;2023-04-28T00:59:13;10.40;99.90
2721;DHT22;1368;49.484;11.112;2023-04-28T01:01:39;10.30;99.90
2721;DHT22;1368;49.484;11.112;2023-04-28T01:04:05;10.30;99.90
2721;DHT22;1368;49.484;11.112;2023-04-28T01:06:31;10.30;99.90
2721;DHT22;1368;49.484;11.112;2023-04-28T01:08:57;10.40;99.90
2721;DHT22;1368;49.484;11.112;2023-04-28T01:11:22;10.50;99.90
2721;DHT22;1368;49.484;11.112;2023-04-28T01:13:48;10.50;99.90
2721;DHT22;1368;49.484;11.112;2023-04-28T01:16:13;10.40;99.90
2721;DHT22;1368;49.484;11.112;2023-04-28T01:18:42;10.40;99.90
2721;DHT22;1368;49.484;11.112;2023-04-28T01:21:09;10.40;99.90
2721;DHT22;1368;49.484;11.112;2023-04-28T01:23:35;10.50;99.90
2721;DHT22;1368;49.484;11.112;2023-04-28T01:26:00;10.80;99.90
2721;DHT22;1368;49.484;11.112;2023-04-28T01:28:27;10.60;99.90
2721;DHT22;1368;49.484;11.112;2023-04-28T01:30:53;10.70;99.90
2721;DHT22;1368;49.484;11.112;2023-04-28T01:33:19;10.60;99.90
2721;DHT22;1368;49.484;11.112;2023-04-28T01:35:45;10.60;99.90
2721;DHT22;1368;49.484;11.112;2023-04-28T01:38:11;10.50;99.90
2721;DHT22;1368;49.484;11.112;2023-04-28T01:40:36;10.40;99.90
2721;DHT22;1368;49.484;11.112;2023-04-28T01:43:02;10.40;99.90
2721;DHT22;1368;49.484;11.112;2023-04-28T01:45:27;10.40;99.90
2721;DHT22;1368;49.484;11.112;2023-04-28T01:47:53;10.50;99.90
2721;DHT22;1368;49.484;11.112;2023-04-28T01:50:18;10.60;99.90
2721;DHT22;1368;49.484;11.112;2023-04-28T01:52:44;10.70;99.90
2721;DHT22;1368;49.484;11.112;2023-04-28T01:55:09;10.70;99.90
2721;DHT22;1368;49.484;11.112;2023-04-28T01:57:35;10.60;99.90
2721;DHT22;1368;49.484;11.112;2023-04-28T02:00:02;10.60;99.90
2721;DHT22;1368;49.484;11.112;2023-04-28T02:02:27;10.50;99.90
2721;DHT22;1368;49.484;11.112;2023-04-28T02:04:53;10.60;99.90
2721;DHT22;1368;49.484;11.112;2023-04-28T02:07:18;10.80;99.90
2721;DHT22;1368;49.484;11.112;2023-04-28T02:09:44;11.30;99.90
2721;DHT22;1368;49.484;11.112;2023-04-28T02:12:10;10.90;99.90
2721;DHT22;1368;49.484;11.112;2023-04-28T02:14:36;10.90;99.90
2721;DHT22;1368;49.484;11.112;2023-04-28T02:17:01;11.10;99.90
2721;DHT22;1368;49.484;11.112;2023-04-28T02:19:29;11.10;99.90
2721;DHT22;1368;49.484;11.112;2023-04-28T02:21:55;11.00;99.90
2721;DHT22;1368;49.484;11.112;2023-04-28T02:24:20;11.10;99.90
2721;DHT22;1368;49.484;11.112;2023-04-28T02:26:46;11.10;99.90
2721;DHT22;1368;49.484;11.112;2023-04-28T02:29:12;11.20;99.90
2721;DHT22;1368;49.484;11.112;2023-04-28T02:31:37;11.30;99.90
2721;DHT22;1368;49.484;11.112;2023-04-28T02:34:03;11.40;99.90
2721;DHT22;1368;49.484;11.112;2023-04-28T02:36:28;11.60;99.90
2721;DHT22;1368;49.484;11.112;2023-04-28T02:38:54;11.70;99.90
2721;DHT22;1368;49.484;11.112;2023-04-28T02:41:19;11.60;99.90
2721;DHT22;1368;49.484;11.112;2023-04-28T02:43:45;11.50;99.90
2721;DHT22;1368;49.484;11.112;2023-04-28T02:46:11;11.30;99.90
2721;DHT22;1368;49.484;11.112;2023-04-28T02:48:36;11.10;99.90
2721;DHT22;1368;49.484;11.112;2023-04-28T02:51:02;11.00;99.90
2721;DHT22;1368;49.484;11.112;2023-04-28T02:53:28;11.10;99.90
2721;DHT22;1368;49.484;11.112;2023-04-28T02:55:53;11.10;99.90
2721;DHT22;1368;49.484;11.112;2023-04-28T02:58:19;11.10;99.90
2721;DHT22;1368;49.484;11.112;2023-04-28T03:00:45;11.10;99.90
2721;DHT22;1368;49.484;11.112;2023-04-28T03:03:11;11.20;99.90
2721;DHT22;1368;49.484;11.112;2023-04-28T03:05:36;11.30;99.90
2721;DHT22;1368;49.484;11.112;2023-04-28T03:08:02;11.30;99.90
2721;DHT22;1368;49.484;11.112;2023-04-28T03:10:27;11.40;99.90
2721;DHT22;1368;49.484;11.112;2023-04-28T03:12:53;11.70;99.90
2721;DHT22;1368;49.484;11.112;2023-04-28T03:15:19;11.50;99.90
2721;DHT22;1368;49.484;11.112;2023-04-28T03:17:44;11.40;99.90
2721;DHT22;1368;49.484;11.112;2023-04-28T03:20:11;11.40;99.90
2721;DHT22;1368;49.484;11.112;2023-04-28T03:22:37;11.20;99.90
2721;DHT22;1368;49.484;11.112;2023-04-28T03:25:03;11.20;99.90
2721;DHT22;1368;49.484;11.112;2023-04-28T03:27:29;11.30;99.90
2721;DHT22;1368;49.484;11.112;2023-04-28T03:29:55;11.30;99.90
2721;DHT22;1368;49.484;11.112;2023-04-28T03:32:21;11.30;99.90
2721;DHT22;1368;49.484;11.112;2023-04-28T03:34:46;11.20;99.90
2721;DHT22;1368;49.484;11.112;2023-04-28T03:37:12;11.30;99.90
2721;DHT22;1368;49.484;11.112;2023-04-28T03:39:38;11.40;99.90
2721;DHT22;1368;49.484;11.112;2023-04-28T03:42:03;11.40;99.90
2721;DHT22;1368;49.484;11.112;2023-04-28T03:44:29;11.40;99.90
2721;DHT22;1368;49.484;11.112;2023-04-28T03:46:55;11.50;99.90
2721;DHT22;1368;49.484;11.112;2023-04-28T03:49:20;11.50;99.90
2721;DHT22;1368;49.484;11.112;2023-04-28T03:51:46;11.60;99.90
2721;DHT22;1368;49.484;11.112;2023-04-28T03:54:12;11.70;99.90
2721;DHT22;1368;49.484;11.112;2023-04-28T03:56:37;11.70;99.90
2721;DHT22;1368;49.484;11.112;2023-04-28T03:59:03;11.90;99.90
2721;DHT22;1368;49.484;11.112;2023-04-28T04:01:29;11.90;99.90
2721;DHT22;1368;49.484;11.112;2023-04-28T04:03:54;11.60;99.90
2721;DHT22;1368;49.484;11.112;2023-04-28T04:06:21;11.40;99.90
2721;DHT22;1368;49.484;11.112;2023-04-28T04:08:46;11.40;99.90
2721;DHT22;1368;49.484;11.112;2023-04-28T04:11:12;11.40;99.90
2721;DHT22;1368;49.484;11.112;2023-04-28T04:13:38;11.60;99.90
2721;DHT22;1368;49.484;11.112;2023-04-28T04:16:03;11.90;99.90
2721;DHT22;1368;49.484;11.112;2023-04-28T04:18:29;11.60;99.90
2721;DHT22;1368;49.484;11.112;2023-04-28T04:20:55;11.60;99.90
2721;DHT22;1368;49.484;11.112;2023-04-28T04:23:22;11.80;99.90
2721;DHT22;1368;49.484;11.112;2023-04-28T04:25:48;12.00;99.90
2721;DHT22;1368;49.484;11.112;2023-04-28T04:28:13;12.20;99.90
2721;DHT22;1368;49.484;11.112;2023-04-28T04:30:40;12.20;99.90
2721;DHT22;1368;49.484;11.112;2023-04-28T04:33:05;12.50;99.90
2721;DHT22;1368;49.484;11.112;2023-04-28T04:35:31;12.50;99.90
2721;DHT22;1368;49.484;11.112;2023-04-28T04:37:57;12.50;99.90
2721;DHT22;1368;49.484;11.112;2023-04-28T04:40:23;12.30;99.90
2721;DHT22;1368;49.484;11.112;2023-04-28T04:42:48;12.30;99.90
2721;DHT22;1368;49.484;11.112;2023-04-28T04:45:14;12.50;99.90
2721;DHT22;1368;49.484;11.112;2023-04-28T04:47:39;12.40;99.90
2721;DHT22;1368;49.484;11.112;2023-04-28T04:50:06;12.50;99.90
2721;DHT22;1368;49.484;11.112;2023-04-28T04:52:31;12.40;99.90
2721;DHT22;1368;49.484;11.112;2023-04-28T04:54:58;12.30;99.90
2721;DHT22;1368;49.484;11.112;2023-04-28T04:57:23;12.50;99.90
2721;DHT22;1368;49.484;11.112;2023-04-28T04:59:49;12.60;99.90
2721;DHT22;1368;49.484;11.112;2023-04-28T05:02:14;12.70;99.90
2721;DHT22;1368;49.484;11.112;2023-04-28T05:04:40;12.60;99.90
2721;DHT22;1368;49.484;11.112;2023-04-28T05:07:05;12.40;99.90
2721;DHT22;1368;49.484;11.112;2023-04-28T05:09:31;12.30;99.90
2721;DHT22;1368;49.484;11.112;2023-04-28T05:11:57;12.20;99.90
2721;DHT22;1368;49.484;11.112;2023-04-28T05:14:23;12.30;99.90
2721;DHT22;1368;49.484;11.112;2023-04-28T05:16:48;12.30;99.90
2721;DHT22;1368;49.484;11.112;2023-04-28T05:19:14;12.40;99.90
2721;DHT22;1368;49.484;11.112;2023-04-28T05:21:40;12.50;99.90
2721;DHT22;1368;49.484;11.112;2023-04-28T05:24:06;12.70;99.90
2721;DHT22;1368;49.484;11.112;2023-04-28T05:26:31;12.90;99.90
2721;DHT22;1368;49.484;11.112;2023-04-28T05:28:57;13.10;99.90
2721;DHT22;1368;49.484;11.112;2023-04-28T05:31:22;13.30;99.90
2721;DHT22;1368;49.484;11.112;2023-04-28T05:33:48;13.40;99.90
2721;DHT22;1368;49.484;11.112;2023-04-28T05:36:13;13.50;99.90
2721;DHT22;1368;49.484;11.112;2023-04-28T05:38:42;13.70;99.90
2721;DHT22;1368;49.484;11.112;2023-04-28T05:41:07;13.90;99.90
2721;DHT22;1368;49.484;11.112;2023-04-28T05:43:33;13.60;99.90
2721;DHT22;1368;49.484;11.112;2023-04-28T05:45:59;13.60;99.90
2721;DHT22;1368;49.484;11.112;2023-04-28T05:48:25;13.30;99.90
2721;DHT22;1368;49.484;11.112;2023-04-28T05:50:51;13.30;99.90
2721;DHT22;1368;49.484;11.112;2023-04-28T05:53:16;13.40;99.90
2721;DHT22;1368;49.484;11.112;2023-04-28T05:55:42;13.20;99.90
2721;DHT22;1368;49.484;11.112;2023-04-28T05:58:07;13.20;99.90
2721;DHT22;1368;49.484;11.112;2023-04-28T06:00:33;13.10;99.90
2721;DHT22;1368;49.484;11.112;2023-04-28T06:02:59;13.20;99.90
2721;DHT22;1368;49.484;11.112;2023-04-28T06:05:25;13.30;99.90
2721;DHT22;1368;49.484;11.112;2023-04-28T06:07:50;14.00;99.90
2721;DHT22;1368;49.484;11.112;2023-04-28T06:10:17;13.90;99.90
2721;DHT22;1368;49.484;11.112;2023-04-28T06:12:43;13.90;99.90
2721;DHT22;1368;49.484;11.112;2023-04-28T06:15:09;14.00;99.90
2721;DHT22;1368;49.484;11.112;2023-04-28T06:17:34;13.50;99.90
2721;DHT22;1368;49.484;11.112;2023-04-28T06:20:00;13.30;99.90
2721;DHT22;1368;49.484;11.112;2023-04-28T06:22:26;13.10;99.90
2721;DHT22;1368;49.484;11.112;2023-04-28T06:24:51;12.90;99.90
2721;DHT22;1368;49.484;11.112;2023-04-28T06:27:17;12.80;99.90
2721;DHT22;1368;49.484;11.112;2023-04-28T06:29:43;12.80;99.90
2721;DHT22;1368;49.484;11.112;2023-04-28T06:32:09;12.80;99.90
2721;DHT22;1368;49.484;11.112;2023-04-28T06:34:35;12.90;99.90
2721;DHT22;1368;49.484;11.112;2023-04-28T06:37:01;13.00;99.90
2721;DHT22;1368;49.484;11.112;2023-04-28T06:39:27;13.20;99.90
2721;DHT22;1368;49.484;11.112;2023-04-28T06:41:52;13.40;99.90
2721;DHT22;1368;49.484;11.112;2023-04-28T06:44:18;13.40;99.90
2721;DHT22;1368;49.484;11.112;2023-04-28T06:46:44;13.00;99.90
2721;DHT22;1368;49.484;11.112;2023-04-28T06:49:09;13.30;99.90
2721;DHT22;1368;49.484;11.112;2023-04-28T06:51:35;13.00;99.90
2721;DHT22;1368;49.484;11.112;2023-04-28T06:54:01;12.90;99.90
2721;DHT22;1368;49.484;11.112;2023-04-28T06:56:26;12.60;99.90
2721;DHT22;1368;49.484;11.112;2023-04-28T06:58:54;12.60;99.90
2721;DHT22;1368;49.484;11.112;2023-04-28T07:01:20;12.60;99.90
2721;DHT22;1368;49.484;11.112;2023-04-28T07:03:46;12.70;99.90
2721;DHT22;1368;49.484;11.112;2023-04-28T07:06:12;12.60;99.90
2721;DHT22;1368;49.484;11.112;2023-04-28T07:08:38;12.50;99.90
2721;DHT22;1368;49.484;11.112;2023-04-28T07:11:04;12.40;99.90
2721;DHT22;1368;49.484;11.112;2023-04-28T07:13:30;12.00;99.90
2721;DHT22;1368;49.484;11.112;2023-04-28T07:15:56;11.60;99.90
2721;DHT22;1368;49.484;11.112;2023-04-28T07:18:22;11.50;99.90
2721;DHT22;1368;49.484;11.112;2023-04-28T07:20:48;11.40;99.90
2721;DHT22;1368;49.484;11.112;2023-04-28T07:23:13;11.70;99.90
2721;DHT22;1368;49.484;11.112;2023-04-28T07:25:39;12.00;99.90
2721;DHT22;1368;49.484;11.112;2023-04-28T07:28:06;12.20;99.90
2721;DHT22;1368;49.484;11.112;2023-04-28T07:30:32;12.20;99.90
2721;DHT22;1368;49.484;11.112;2023-04-28T07:32:58;12.10;99.90
2721;DHT22;1368;49.484;11.112;2023-04-28T07:35:24;11.90;99.90
2721;DHT22;1368;49.484;11.112;2023-04-28T07:37:50;11.80;99.90
2721;DHT22;1368;49.484;11.112;2023-04-28T07:40:16;11.60;99.90
2721;DHT22;1368;49.484;11.112;2023-04-28T07:42:42;11.60;99.90
2721;DHT22;1368;49.484;11.112;2023-04-28T07:45:08;11.60;99.90
2721;DHT22;1368;49.484;11.112;2023-04-28T07:47:34;11.50;99.90
2721;DHT22;1368;49.484;11.112;2023-04-28T07:50:01;11.40;99.90
2721;DHT22;1368;49.484;11.112;2023-04-28T07:52:31;11.30;99.90
2721;DHT22;1368;49.484;11.112;2023-04-28T07:54:57;11.20;99.90
2721;DHT22;1368;49.484;11.112;2023-04-28T07:57:23;11.10;99.90
2721;DHT22;1368;49.484;11.112;2023-04-28T07:59:49;11.10;99.90
2721;DHT22;1368;49.484;11.112;2023-04-28T08:02:15;11.10;99.90
2721;DHT22;1368;49.484;11.112;2023-04-28T08:04:41;11.00;99.90
2721;DHT22;1368;49.484;11.112;2023-04-28T08:07:08;11.10;99.90
2721;DHT22;1368;49.484;11.112;2023-04-28T08:09:33;11.00;99.90
2721;DHT22;1368;49.484;11.112;2023-04-28T08:12:00;11.10;99.90
2721;DHT22;1368;49.484;11.112;2023-04-28T08:14:26;11.10;99.90
2721;DHT22;1368;49.484;11.112;2023-04-28T08:16:52;11.10;99.90
2721;DHT22;1368;49.484;11.112;2023-04-28T08:19:18;11.30;99.90
2721;DHT22;1368;49.484;11.112;2023-04-28T08:21:43;11.30;99.90
2721;DHT22;1368;49.484;11.112;2023-04-28T08:24:09;11.40;99.90
2721;DHT22;1368;49.484;11.112;2023-04-28T08:26:36;11.40;99.90
2721;DHT22;1368;49.484;11.112;2023-04-28T08:29:02;11.40;99.90
2721;DHT22;1368;49.484;11.112;2023-04-28T08:31:27;11.30;99.90
2721;DHT22;1368;49.484;11.112;2023-04-28T08:33:53;11.00;99.90
2721;DHT22;1368;49.484;11.112;2023-04-28T08:36:18;10.90;99.90
2721;DHT22;1368;49.484;11.112;2023-04-28T08:38:44;11.20;99.90
2721;DHT22;1368;49.484;11.112;2023-04-28T08:41:12;10.90;99.90
2721;DHT22;1368;49.484;11.112;2023-04-28T08:43:39;11.40;99.90
2721;DHT22;1368;49.484;11.112;2023-04-28T08:46:07;11.20;99.90
2721;DHT22;1368;49.484;11.112;2023-04-28T08:48:42;11.20;99.90
2721;DHT22;1368;49.484;11.112;2023-04-28T08:51:14;11.50;99.90
2721;DHT22;1368;49.484;11.112;2023-04-28T08:53:43;11.60;99.90
2721;DHT22;1368;49.484;11.112;2023-04-28T08:56:09;11.80;99.90
2721;DHT22;1368;49.484;11.112;2023-04-28T08:58:38;11.80;99.90
2721;DHT22;1368;49.484;11.112;2023-04-28T09:01:04;11.90;99.90
2721;DHT22;1368;49.484;11.112;2023-04-28T09:03:30;11.80;99.90
2721;DHT22;1368;49.484;11.112;2023-04-28T09:06:00;11.80;99.90
2721;DHT22;1368;49.484;11.112;2023-04-28T09:08:26;11.20;99.90
2721;DHT22;1368;49.484;11.112;2023-04-28T09:11:05;11.20;99.90
2721;DHT22;1368;49.484;11.112;2023-04-28T09:13:32;11.10;99.90
2721;DHT22;1368;49.484;11.112;2023-04-28T09:15:59;11.20;99.90
2721;DHT22;1368;49.484;11.112;2023-04-28T09:18:26;11.40;99.90
2721;DHT22;1368;49.484;11.112;2023-04-28T09:20:51;11.50;99.90
2721;DHT22;1368;49.484;11.112;2023-04-28T09:23:21;11.90;99.90
2721;DHT22;1368;49.484;11.112;2023-04-28T09:28:24;12.20;99.90
2721;DHT22;1368;49.484;11.112;2023-04-28T09:30:50;12.20;99.90
2721;DHT22;1368;49.484;11.112;2023-04-28T09:33:16;12.40;99.90
2721;DHT22;1368;49.484;11.112;2023-04-28T09:35:42;12.40;99.90
2721;DHT22;1368;49.484;11.112;2023-04-28T09:38:10;12.50;99.90
2721;DHT22;1368;49.484;11.112;2023-04-28T09:40:58;12.50;99.90
2721;DHT22;1368;49.484;11.112;2023-04-28T09:43:29;12.70;99.90
2721;DHT22;1368;49.484;11.112;2023-04-28T09:45:56;12.50;99.90
2721;DHT22;1368;49.484;11.112;2023-04-28T09:50:54;12.50;99.90
2721;DHT22;1368;49.484;11.112;2023-04-28T09:53:22;12.00;99.90
2721;DHT22;1368;49.484;11.112;2023-04-28T09:55:49;12.10;99.90
2721;DHT22;1368;49.484;11.112;2023-04-28T09:58:18;12.80;99.90
2721;DHT22;1368;49.484;11.112;2023-04-28T10:00:44;12.70;99.90
2721;DHT22;1368;49.484;11.112;2023-04-28T10:03:10;12.80;99.90
2721;DHT22;1368;49.484;11.112;2023-04-28T10:05:38;13.10;99.90
2721;DHT22;1368;49.484;11.112;2023-04-28T10:08:05;13.20;99.90
2721;DHT22;1368;49.484;11.112;2023-04-28T10:10:30;13.10;99.90
2721;DHT22;1368;49.484;11.112;2023-04-28T10:12:56;12.90;99.90
2721;DHT22;1368;49.484;11.112;2023-04-28T10:15:22;12.70;99.90
2721;DHT22;1368;49.484;11.112;2023-04-28T10:17:49;12.90;99.90
2721;DHT22;1368;49.484;11.112;2023-04-28T10:20:15;12.90;99.90
2721;DHT22;1368;49.484;11.112;2023-04-28T10:25:47;13.20;99.90
2721;DHT22;1368;49.484;11.112;2023-04-28T10:28:14;13.20;99.90
2721;DHT22;1368;49.484;11.112;2023-04-28T10:30:40;13.10;99.90
2721;DHT22;1368;49.484;11.112;2023-04-28T10:35:42;13.40;99.90
2721;DHT22;1368;49.484;11.112;2023-04-28T10:38:09;13.60;99.90
2721;DHT22;1368;49.484;11.112;2023-04-28T10:43:04;14.20;99.90
2721;DHT22;1368;49.484;11.112;2023-04-28T10:48:22;14.20;99.90
2721;DHT22;1368;49.484;11.112;2023-04-28T10:56:23;13.90;99.90
2721;DHT22;1368;49.484;11.112;2023-04-28T10:58:55;13.60;99.90
2721;DHT22;1368;49.484;11.112;2023-04-28T11:03:50;13.50;99.90
2721;DHT22;1368;49.484;11.112;2023-04-28T11:19:22;16.30;99.90
2721;DHT22;1368;49.484;11.112;2023-04-28T11:21:53;16.50;99.90
2721;DHT22;1368;49.484;11.112;2023-04-28T11:24:20;16.60;99.90
2721;DHT22;1368;49.484;11.112;2023-04-28T11:26:46;16.70;99.90
2721;DHT22;1368;49.484;11.112;2023-04-28T11:29:12;17.00;99.90
2721;DHT22;1368;49.484;11.112;2023-04-28T11:31:39;16.30;99.90
2721;DHT22;1368;49.484;11.112;2023-04-28T11:34:09;16.60;99.90
2721;DHT22;1368;49.484;11.112;2023-04-28T11:36:44;16.50;99.90
2721;DHT22;1368;49.484;11.112;2023-04-28T11:39:11;16.20;99.90
2721;DHT22;1368;49.484;11.112;2023-04-28T11:41:44;16.00;99.90
2721;DHT22;1368;49.484;11.112;2023-04-28T11:44:13;16.10;99.90
2721;DHT22;1368;49.484;11.112;2023-04-28T11:46:49;16.60;99.90
2721;DHT22;1368;49.484;11.112;2023-04-28T11:49:19;16.90;99.90
2721;DHT22;1368;49.484;11.112;2023-04-28T11:51:46;16.90;99.90
2721;DHT22;1368;49.484;11.112;2023-04-28T11:54:22;16.40;99.90
2721;DHT22;1368;49.484;11.112;2023-04-28T11:56:48;16.10;99.90
2721;DHT22;1368;49.484;11.112;2023-04-28T11:59:14;16.40;99.90
2721;DHT22;1368;49.484;11.112;2023-04-28T12:01:46;16.70;99.90
2721;DHT22;1368;49.484;11.112;2023-04-28T12:04:12;16.70;99.90
2721;DHT22;1368;49.484;11.112;2023-04-28T12:06:39;17.20;99.90
2721;DHT22;1368;49.484;11.112;2023-04-28T12:09:17;16.50;99.90
2721;DHT22;1368;49.484;11.112;2023-04-28T12:11:52;16.40;99.90
2721;DHT22;1368;49.484;11.112;2023-04-28T12:14:18;15.90;99.90
2721;DHT22;1368;49.484;11.112;2023-04-28T12:16:45;16.00;99.90
2721;DHT22;1368;49.484;11.112;2023-04-28T12:19:13;16.00;99.90
2721;DHT22;1368;49.484;11.112;2023-04-28T12:21:40;16.10;99.90
2721;DHT22;1368;49.484;11.112;2023-04-28T12:24:20;16.50;99.90
2721;DHT22;1368;49.484;11.112;2023-04-28T12:26:47;16.60;99.90
2721;DHT22;1368;49.484;11.112;2023-04-28T12:32:01;16.80;99.90
2721;DHT22;1368;49.484;11.112;2023-04-28T12:34:27;17.50;99.90
2721;DHT22;1368;49.484;11.112;2023-04-28T12:36:54;18.10;99.90
2721;DHT22;1368;49.484;11.112;2023-04-28T12:39:20;18.60;99.90
2721;DHT22;1368;49.484;11.112;2023-04-28T12:41:47;18.80;99.90
2721;DHT22;1368;49.484;11.112;2023-04-28T12:44:13;19.00;99.90
2721;DHT22;1368;49.484;11.112;2023-04-28T12:46:40;19.30;99.90
2721;DHT22;1368;49.484;11.112;2023-04-28T12:49:06;19.50;99.90
2721;DHT22;1368;49.484;11.112;2023-04-28T12:51:32;19.20;99.90
2721;DHT22;1368;49.484;11.112;2023-04-28T12:53:59;19.20;99.90
2721;DHT22;1368;49.484;11.112;2023-04-28T12:56:25;19.40;99.90
2721;DHT22;1368;49.484;11.112;2023-04-28T12:58:51;19.60;99.90
2721;DHT22;1368;49.484;11.112;2023-04-28T13:01:17;19.70;99.90
2721;DHT22;1368;49.484;11.112;2023-04-28T13:03:42;19.80;99.90
2721;DHT22;1368;49.484;11.112;2023-04-28T13:06:09;19.90;99.90
2721;DHT22;1368;49.484;11.112;2023-04-28T13:08:35;19.80;99.90
2721;DHT22;1368;49.484;11.112;2023-04-28T13:11:01;19.70;99.90
2721;DHT22;1368;49.484;11.112;2023-04-28T13:13:29;19.50;99.90
2721;DHT22;1368;49.484;11.112;2023-04-28T13:15:55;19.40;99.90
2721;DHT22;1368;49.484;11.112;2023-04-28T13:18:20;19.10;99.90
2721;DHT22;1368;49.484;11.112;2023-04-28T13:20:48;18.80;99.90
2721;DHT22;1368;49.484;11.112;2023-04-28T13:23:13;18.80;99.90
2721;DHT22;1368;49.484;11.112;2023-04-28T13:25:39;18.80;99.90
2721;DHT22;1368;49.484;11.112;2023-04-28T13:28:05;18.90;99.90
2721;DHT22;1368;49.484;11.112;2023-04-28T13:30:30;18.90;99.90
2721;DHT22;1368;49.484;11.112;2023-04-28T13:32:56;18.90;99.90
2721;DHT22;1368;49.484;11.112;2023-04-28T13:35:23;19.00;99.90
2721;DHT22;1368;49.484;11.112;2023-04-28T13:37:48;19.20;99.90
2721;DHT22;1368;49.484;11.112;2023-04-28T13:40:14;19.30;99.90
2721;DHT22;1368;49.484;11.112;2023-04-28T13:42:39;19.40;99.90
2721;DHT22;1368;49.484;11.112;2023-04-28T13:45:05;19.70;99.90
2721;DHT22;1368;49.484;11.112;2023-04-28T13:47:31;20.20;99.90
2721;DHT22;1368;49.484;11.112;2023-04-28T13:49:59;20.80;99.90
2721;DHT22;1368;49.484;11.112;2023-04-28T13:52:25;21.30;99.90
2721;DHT22;1368;49.484;11.112;2023-04-28T13:54:51;21.70;99.90
2721;DHT22;1368;49.484;11.112;2023-04-28T13:57:17;21.60;99.90
2721;DHT22;1368;49.484;11.112;2023-04-28T13:59:42;21.50;99.90
2721;DHT22;1368;49.484;11.112;2023-04-28T14:02:08;20.90;99.90
2721;DHT22;1368;49.484;11.112;2023-04-28T14:04:35;20.80;99.90
2721;DHT22;1368;49.484;11.112;2023-04-28T14:07:01;20.60;99.90
2721;DHT22;1368;49.484;11.112;2023-04-28T14:09:27;20.30;99.90
2721;DHT22;1368;49.484;11.112;2023-04-28T14:11:52;20.30;99.90
2721;DHT22;1368;49.484;11.112;2023-04-28T14:14:21;20.70;99.90
2721;DHT22;1368;49.484;11.112;2023-04-28T14:16:46;20.10;99.90
2721;DHT22;1368;49.484;11.112;2023-04-28T14:19:12;20.30;99.90
2721;DHT22;1368;49.484;11.112;2023-04-28T14:21:42;20.30;99.90
2721;DHT22;1368;49.484;11.112;2023-04-28T14:24:07;20.20;99.90
2721;DHT22;1368;49.484;11.112;2023-04-28T14:26:34;20.40;99.90
2721;DHT22;1368;49.484;11.112;2023-04-28T14:29:00;20.60;99.90
2721;DHT22;1368;49.484;11.112;2023-04-28T14:31:26;20.60;99.90
2721;DHT22;1368;49.484;11.112;2023-04-28T14:33:52;20.90;99.90
2721;DHT22;1368;49.484;11.112;2023-04-28T14:36:18;20.80;99.90
2721;DHT22;1368;49.484;11.112;2023-04-28T14:38:44;20.70;99.90
2721;DHT22;1368;49.484;11.112;2023-04-28T14:41:09;20.60;99.90
2721;DHT22;1368;49.484;11.112;2023-04-28T14:43:35;20.60;99.90
2721;DHT22;1368;49.484;11.112;2023-04-28T14:46:02;21.00;99.90
2721;DHT22;1368;49.484;11.112;2023-04-28T14:48:28;20.50;99.90
2721;DHT22;1368;49.484;11.112;2023-04-28T14:50:53;20.10;99.90
2721;DHT22;1368;49.484;11.112;2023-04-28T14:53:19;20.20;99.90
2721;DHT22;1368;49.484;11.112;2023-04-28T14:55:45;20.10;99.90
2721;DHT22;1368;49.484;11.112;2023-04-28T14:58:10;20.20;99.90
2721;DHT22;1368;49.484;11.112;2023-04-28T15:00:36;20.10;99.90
2721;DHT22;1368;49.484;11.112;2023-04-28T15:03:02;20.20;99.90
2721;DHT22;1368;49.484;11.112;2023-04-28T15:05:28;20.10;99.90
2721;DHT22;1368;49.484;11.112;2023-04-28T15:07:53;20.00;99.90
2721;DHT22;1368;49.484;11.112;2023-04-28T15:10:19;19.90;99.90
2721;DHT22;1368;49.484;11.112;2023-04-28T15:12:47;19.80;99.90
2721;DHT22;1368;49.484;11.112;2023-04-28T15:15:13;19.50;99.90
2721;DHT22;1368;49.484;11.112;2023-04-28T15:17:39;19.80;99.90
2721;DHT22;1368;49.484;11.112;2023-04-28T15:20:05;19.40;99.90
2721;DHT22;1368;49.484;11.112;2023-04-28T15:22:32;19.60;99.90
2721;DHT22;1368;49.484;11.112;2023-04-28T15:24:57;19.90;99.90
2721;DHT22;1368;49.484;11.112;2023-04-28T15:27:23;20.30;99.90
2721;DHT22;1368;49.484;11.112;2023-04-28T15:29:49;20.60;99.90
2721;DHT22;1368;49.484;11.112;2023-04-28T15:32:15;20.50;99.90
2721;DHT22;1368;49.484;11.112;2023-04-28T15:34:40;20.30;99.90
2721;DHT22;1368;49.484;11.112;2023-04-28T15:37:48;20.20;99.90
2721;DHT22;1368;49.484;11.112;2023-04-28T15:40:15;20.20;99.90
2721;DHT22;1368;49.484;11.112;2023-04-28T15:42:42;20.20;99.90
2721;DHT22;1368;49.484;11.112;2023-04-28T15:45:16;20.10;99.90
2721;DHT22;1368;49.484;11.112;2023-04-28T15:47:43;20.20;99.90
2721;DHT22;1368;49.484;11.112;2023-04-28T15:50:10;20.20;99.90
2721;DHT22;1368;49.484;11.112;2023-04-28T15:52:39;20.10;99.90
2721;DHT22;1368;49.484;11.112;2023-04-28T15:55:06;19.90;99.90
2721;DHT22;1368;49.484;11.112;2023-04-28T15:57:33;19.90;99.90
2721;DHT22;1368;49.484;11.112;2023-04-28T15:59:58;20.00;99.90
2721;DHT22;1368;49.484;11.112;2023-04-28T16:02:24;19.40;99.90
2721;DHT22;1368;49.484;11.112;2023-04-28T16:04:50;19.40;99.90
2721;DHT22;1368;49.484;11.112;2023-04-28T16:07:15;19.40;99.90
2721;DHT22;1368;49.484;11.112;2023-04-28T16:09:41;19.20;99.90
2721;DHT22;1368;49.484;11.112;2023-04-28T16:12:07;18.80;99.90
2721;DHT22;1368;49.484;11.112;2023-04-28T16:14:32;18.90;99.90
2721;DHT22;1368;49.484;11.112;2023-04-28T16:16:58;18.50;99.90
2721;DHT22;1368;49.484;11.112;2023-04-28T16:19:23;18.50;99.90